KSWF/SWF METAR and TAF weather

Enter ICAO airport designator
Station Type Date Time Source
KSWF METAR 2024/05/28 22:45 UTC NOAA

KSWF 282245Z 31017G26KT 10SM BKN060 20/13 A2977


Station Type Date Time Source
KSWF Decoded METAR 2024/05/28 22:45 UTC NOAA

Newburgh / Stewart, NY, United States (KSWF) 41-30N 074-06W
May 28, 2024 - 06:45 PM EDT / 2024.05.28 2245 UTC
Wind: from the NW (310 degrees) at 20 MPH (17 KT) gusting to 30 MPH (26 KT):0
Visibility: 10 mile(s):0
Sky conditions: mostly cloudy
Temperature: 68 F (20 C)
Dew Point: 55 F (13 C)
Relative Humidity: 64%
Pressure (altimeter): 29.77 in. Hg (1008 hPa)
ob: KSWF 282245Z 31017G26KT 10SM BKN060 20/13 A2977
cycle: 23

Station Type Date Time Source
KSWF TAF 2024/05/28 20:40 UTC NOAA